Time;durP1;ratioP1;P1;durP2;ratioP2;P2;SDS_P1;SDS_P2;PMS_P1;PMS_P2;Temp;Humidity;BMP_temperature;BMP_pressure;BME280_temperature;BME280_humidity;BME280_pressure;Samples;Min_cycle;Max_cycle;Signal;HPM_P1;HPM_P2
2022/03/09 00:01:29;;;;;;;15.45;7.53;;;4.90;54.10;;;;;;9177726;19;20493;-60
2022/03/09 00:04:34;;;;;;;12.55;6.55;;;4.80;54.10;;;;;;9177572;19;20344;-59
2022/03/09 00:07:40;;;;;;;14.13;7.45;;;4.80;54.10;;;;;;9174495;19;20025;-61
2022/03/09 00:10:47;;;;;;;13.57;7.40;;;4.70;54.10;;;;;;9176230;19;20014;-60
2022/03/09 00:13:52;;;;;;;18.02;6.63;;;4.70;54.20;;;;;;9179029;19;20479;-61
2022/03/09 00:16:57;;;;;;;13.27;6.57;;;4.60;54.10;;;;;;9179204;19;20018;-60
2022/03/09 00:20:06;;;;;;;14.10;7.47;;;4.60;54.20;;;;;;9172604;19;20010;-60
2022/03/09 00:23:11;;;;;;;15.18;6.82;;;4.60;54.30;;;;;;9178748;19;20431;-61
2022/03/09 00:26:19;;;;;;;15.30;7.07;;;4.50;54.30;;;;;;9175117;19;20015;-62
2022/03/09 00:29:24;;;;;;;17.75;7.38;;;4.50;54.30;;;;;;9177413;19;20029;-60
2022/03/09 00:32:29;;;;;;;14.82;6.97;;;4.40;54.30;;;;;;9176185;19;20021;-61
2022/03/09 00:35:34;;;;;;;12.07;6.93;;;4.40;54.40;;;;;;9176073;19;20022;-60
2022/03/09 00:38:45;;;;;;;14.85;6.93;;;4.30;54.40;;;;;;9176528;19;20014;-62
2022/03/09 00:41:52;;;;;;;15.27;6.82;;;4.30;54.50;;;;;;9176454;19;20025;-64
2022/03/09 00:44:57;;;;;;;11.13;7.18;;;4.30;54.50;;;;;;9178484;19;20037;-60
2022/03/09 00:48:02;;;;;;;12.70;7.50;;;4.20;54.50;;;;;;9173328;19;20018;-62
2022/03/09 00:51:07;;;;;;;15.65;7.22;;;4.20;54.60;;;;;;9173345;19;20480;-60
2022/03/09 00:54:14;;;;;;;13.50;7.20;;;4.10;54.50;;;;;;9175543;19;20022;-61
2022/03/09 00:57:22;;;;;;;15.02;7.25;;;4.00;54.50;;;;;;9175035;19;20669;-60
2022/03/09 01:00:27;;;;;;;12.95;7.00;;;4.00;54.60;;;;;;9176763;19;20582;-60
2022/03/09 01:03:32;;;;;;;16.15;7.50;;;4.00;54.70;;;;;;9175195;19;20490;-59
2022/03/09 01:06:37;;;;;;;15.88;7.32;;;3.90;54.60;;;;;;9172502;19;20070;-60
2022/03/09 01:09:42;;;;;;;11.82;6.97;;;3.90;54.70;;;;;;9173460;19;20022;-61
2022/03/09 01:12:50;;;;;;;11.77;7.05;;;3.80;54.70;;;;;;9173867;19;20010;-61
2022/03/09 01:15:55;;;;;;;13.73;7.25;;;3.80;54.70;;;;;;9175526;19;20025;-60
2022/03/09 01:19:00;;;;;;;14.85;7.32;;;3.70;54.80;;;;;;9175685;19;20110;-60
2022/03/09 01:22:06;;;;;;;14.77;7.60;;;3.70;54.80;;;;;;9171534;19;20362;-61
2022/03/09 01:25:12;;;;;;;11.25;6.93;;;3.70;54.90;;;;;;9175825;19;20019;-62
2022/03/09 01:28:19;;;;;;;19.23;6.47;;;3.60;54.90;;;;;;9172219;19;20014;-61
2022/03/09 01:31:25;;;;;;;15.77;6.70;;;3.50;54.90;;;;;;9173705;19;20478;-61
2022/03/09 01:34:30;;;;;;;13.27;7.30;;;3.50;54.90;;;;;;9173226;19;20022;-59
2022/03/09 01:37:35;;;;;;;12.93;7.68;;;3.50;55.00;;;;;;9173452;19;20018;-59
2022/03/09 01:40:40;;;;;;;17.48;6.97;;;3.40;55.00;;;;;;9172457;19;20015;-60
2022/03/09 01:43:47;;;;;;;14.95;7.93;;;3.40;55.00;;;;;;9174723;19;20026;-61
2022/03/09 01:46:54;;;;;;;13.13;7.20;;;3.40;55.10;;;;;;9175165;19;20026;-62
2022/03/09 01:49:59;;;;;;;13.90;7.47;;;3.30;55.20;;;;;;9172197;19;20023;-61
2022/03/09 01:53:05;;;;;;;15.98;6.78;;;3.30;55.20;;;;;;9179979;19;20317;-63
2022/03/09 01:56:10;;;;;;;14.27;7.13;;;3.20;55.10;;;;;;9182270;19;20014;-60
2022/03/09 01:59:18;;;;;;;14.55;7.72;;;3.10;55.10;;;;;;9183743;19;20029;-60
2022/03/09 02:02:23;;;;;;;17.35;7.18;;;3.10;55.20;;;;;;9181393;19;20025;-60
2022/03/09 02:05:28;;;;;;;15.15;6.95;;;3.10;55.20;;;;;;9185004;19;20006;-62
2022/03/09 02:11:53;;;;;;;16.05;6.70;;;3.10;55.40;;;;;;9178989;19;20025;-61
2022/03/09 02:15:01;;;;;;;17.23;7.70;;;3.00;55.30;;;;;;9179915;19;20014;-60
2022/03/09 02:18:07;;;;;;;13.52;7.55;;;3.00;55.40;;;;;;9180322;19;20336;-59
2022/03/09 02:21:17;;;;;;;15.27;7.38;;;3.00;55.40;;;;;;9178098;19;20427;-59
2022/03/09 02:24:25;;;;;;;15.48;7.88;;;3.00;55.40;;;;;;9183415;19;20360;-60
2022/03/09 02:27:30;;;;;;;16.35;7.80;;;2.90;55.50;;;;;;9181337;19;20070;-60
2022/03/09 02:30:35;;;;;;;22.70;6.88;;;2.90;55.50;;;;;;9177557;19;20029;-60
2022/03/09 02:33:46;;;;;;;15.32;7.28;;;2.90;55.60;;;;;;9178920;19;20018;-60
2022/03/09 02:36:51;;;;;;;22.65;8.10;;;2.90;55.60;;;;;;9182364;19;20471;-62
2022/03/09 02:40:00;;;;;;;13.05;7.10;;;2.80;55.50;;;;;;9180518;19;20018;-60
2022/03/09 02:43:05;;;;;;;13.35;7.47;;;2.80;55.60;;;;;;9182498;19;20018;-62
2022/03/09 02:46:10;;;;;;;14.77;7.05;;;2.70;55.60;;;;;;9181841;19;20486;-61
2022/03/09 02:49:15;;;;;;;23.75;7.45;;;2.70;55.60;;;;;;9179757;19;20019;-59
2022/03/09 02:52:20;;;;;;;16.52;8.10;;;2.70;55.70;;;;;;9179151;19;20851;-59
2022/03/09 02:55:28;;;;;;;11.07;6.90;;;2.70;55.80;;;;;;9179156;19;20026;-61
2022/03/09 02:58:33;;;;;;;13.23;6.45;;;2.70;55.80;;;;;;9180353;19;20018;-64
2022/03/09 03:01:38;;;;;;;14.35;7.03;;;2.60;55.70;;;;;;9179883;19;20045;-59
2022/03/09 03:04:43;;;;;;;14.60;7.53;;;2.60;55.70;;;;;;9174329;19;20819;-59
2022/03/09 03:07:48;;;;;;;19.90;7.70;;;2.60;55.80;;;;;;9177904;19;20033;-59
2022/03/09 03:10:55;;;;;;;17.95;7.60;;;2.50;55.80;;;;;;9178846;19;20103;-61
2022/03/09 03:14:00;;;;;;;14.75;7.75;;;2.50;55.90;;;;;;9177440;19;20801;-61
2022/03/09 03:17:06;;;;;;;13.88;7.32;;;2.50;55.90;;;;;;9179887;19;20022;-61
2022/03/09 03:20:12;;;;;;;15.70;7.43;;;2.50;56.00;;;;;;9174981;19;20018;-60
2022/03/09 03:23:17;;;;;;;11.88;7.18;;;2.50;56.00;;;;;;9179840;19;20085;-61
2022/03/09 03:26:25;;;;;;;13.88;6.85;;;2.40;55.90;;;;;;9177777;19;20017;-60
2022/03/09 03:29:30;;;;;;;19.30;7.70;;;2.40;56.00;;;;;;9179170;19;20581;-60
2022/03/09 03:32:35;;;;;;;15.68;7.72;;;2.40;56.00;;;;;;9178754;19;20026;-59
2022/03/09 03:35:40;;;;;;;12.82;7.47;;;2.40;56.10;;;;;;9177596;19;20447;-61
2022/03/09 03:38:45;;;;;;;12.70;6.70;;;2.40;56.10;;;;;;9179224;19;20014;-59
2022/03/09 03:41:53;;;;;;;11.68;6.32;;;2.40;56.10;;;;;;9179224;19;20471;-59
2022/03/09 03:44:58;;;;;;;13.63;6.93;;;2.30;56.10;;;;;;9181486;19;20054;-60
2022/03/09 03:48:03;;;;;;;14.80;7.32;;;2.30;56.10;;;;;;9176093;19;20025;-59
2022/03/09 03:51:08;;;;;;;13.55;7.07;;;2.30;56.20;;;;;;9177592;19;20026;-63
2022/03/09 03:54:13;;;;;;;15.73;7.82;;;2.30;56.20;;;;;;9175586;19;20011;-60
2022/03/09 03:57:21;;;;;;;19.65;7.50;;;2.30;56.20;;;;;;9177390;19;20015;-60
2022/03/09 04:00:26;;;;;;;15.38;7.45;;;2.30;56.30;;;;;;9178697;19;20026;-61
2022/03/09 04:03:31;;;;;;;13.25;7.32;;;2.30;56.30;;;;;;9178536;19;20423;-61
2022/03/09 04:06:37;;;;;;;15.90;7.43;;;2.20;56.30;;;;;;9178471;19;20018;-61
2022/03/09 04:09:42;;;;;;;13.88;6.60;;;2.20;56.30;;;;;;9176538;19;20018;-60
2022/03/09 04:12:50;;;;;;;18.10;7.03;;;2.20;56.30;;;;;;9177051;19;20022;-61
2022/03/09 04:15:55;;;;;;;18.33;7.30;;;2.20;56.30;;;;;;9174738;19;20025;-61
2022/03/09 04:19:00;;;;;;;13.93;7.35;;;2.20;56.40;;;;;;9177781;19;20464;-60
2022/03/09 04:22:06;;;;;;;12.77;6.95;;;2.10;56.40;;;;;;9172521;19;20015;-61
2022/03/09 04:25:12;;;;;;;12.82;7.28;;;2.10;56.40;;;;;;9178890;19;20014;-61
2022/03/09 04:28:19;;;;;;;14.07;6.75;;;2.10;56.40;;;;;;9177132;19;20027;-61
2022/03/09 04:31:24;;;;;;;16.50;6.57;;;2.10;56.50;;;;;;9175537;19;20486;-60
2022/03/09 04:34:30;;;;;;;12.73;7.18;;;2.10;56.50;;;;;;9176844;19;20018;-61
2022/03/09 04:37:35;;;;;;;15.68;7.35;;;2.10;56.50;;;;;;9178501;19;20344;-63
2022/03/09 04:40:42;;;;;;;13.48;7.53;;;2.00;56.50;;;;;;9176019;19;20014;-59
2022/03/09 04:43:50;;;;;;;12.68;6.95;;;2.00;56.60;;;;;;9177668;19;20030;-64
2022/03/09 04:46:55;;;;;;;15.45;7.15;;;2.00;56.60;;;;;;9176937;19;20022;-62
2022/03/09 04:50:01;;;;;;;14.20;7.93;;;2.00;56.60;;;;;;9173672;19;20026;-61
2022/03/09 04:53:05;;;;;;;14.15;6.80;;;2.00;56.70;;;;;;9173720;19;20034;-61
2022/03/09 04:56:11;;;;;;;11.80;6.88;;;1.90;56.60;;;;;;9173290;19;20029;-60
2022/03/09 04:59:19;;;;;;;12.52;6.82;;;1.90;56.70;;;;;;9176519;19;20037;-60
2022/03/09 05:02:24;;;;;;;15.10;7.22;;;1.90;56.80;;;;;;9172701;19;20366;-60
2022/03/09 05:05:29;;;;;;;15.35;7.82;;;1.90;56.70;;;;;;9178098;19;20504;-65
2022/03/09 05:08:34;;;;;;;13.15;7.45;;;1.90;56.80;;;;;;9176764;19;20019;-60
2022/03/09 05:11:39;;;;;;;11.38;6.82;;;1.90;56.80;;;;;;9174374;19;20518;-59
2022/03/09 05:14:46;;;;;;;11.25;6.82;;;1.90;56.80;;;;;;9172681;19;20033;-59
2022/03/09 05:17:51;;;;;;;13.38;7.22;;;1.90;56.90;;;;;;9174930;19;20014;-62
2022/03/09 05:20:59;;;;;;;15.30;7.57;;;1.90;56.90;;;;;;9168489;19;20446;-61
2022/03/09 05:24:04;;;;;;;15.90;7.38;;;1.90;56.90;;;;;;9175920;19;20026;-61
2022/03/09 05:27:10;;;;;;;15.18;7.32;;;1.80;56.80;;;;;;9178839;19;20106;-60
2022/03/09 05:30:18;;;;;;;13.27;7.00;;;1.80;56.90;;;;;;9185571;19;20361;-59
2022/03/09 05:33:23;;;;;;;14.88;7.43;;;1.80;56.90;;;;;;9181313;19;20021;-60
2022/03/09 05:36:28;;;;;;;15.57;6.93;;;1.80;56.90;;;;;;9183999;19;20089;-61
2022/03/09 05:39:33;;;;;;;20.20;7.05;;;1.80;56.90;;;;;;9181657;19;20067;-63
2022/03/09 05:42:39;;;;;;;13.80;7.05;;;1.80;56.90;;;;;;9181667;19;20064;-60
2022/03/09 05:45:47;;;;;;;17.48;7.78;;;1.80;57.00;;;;;;9185065;19;20015;-58
2022/03/09 05:48:52;;;;;;;18.17;7.55;;;1.80;57.00;;;;;;9183860;19;20070;-61
2022/03/09 05:51:57;;;;;;;14.27;7.47;;;1.70;57.00;;;;;;9183096;19;20022;-62
2022/03/09 05:55:02;;;;;;;14.05;7.82;;;1.70;57.10;;;;;;9181750;19;20014;-60
2022/03/09 05:58:07;;;;;;;14.48;7.00;;;1.70;57.10;;;;;;9180220;19;20037;-58
2022/03/09 06:01:15;;;;;;;13.60;7.78;;;1.70;57.10;;;;;;9180442;19;20014;-59
2022/03/09 06:04:20;;;;;;;18.88;7.35;;;1.70;57.10;;;;;;9180193;19;20127;-59
2022/03/09 06:07:25;;;;;;;19.08;8.23;;;1.70;57.20;;;;;;9181960;19;20114;-63
2022/03/09 06:10:30;;;;;;;16.02;7.85;;;1.60;57.10;;;;;;9185276;19;20657;-61
2022/03/09 06:13:35;;;;;;;12.80;7.32;;;1.70;57.30;;;;;;9179177;19;20045;-60
2022/03/09 06:16:43;;;;;;;14.65;7.10;;;1.60;57.20;;;;;;9180908;19;20026;-61
2022/03/09 06:19:48;;;;;;;14.18;7.38;;;1.60;57.30;;;;;;9175486;19;20517;-60
2022/03/09 06:22:53;;;;;;;17.58;8.05;;;1.60;57.30;;;;;;9179489;19;20025;-60
2022/03/09 06:25:58;;;;;;;18.15;7.28;;;1.60;57.40;;;;;;9182743;19;20099;-61
2022/03/09 06:29:04;;;;;;;12.98;7.07;;;1.60;57.40;;;;;;9181021;19;20021;-59
2022/03/09 06:32:12;;;;;;;18.40;7.22;;;1.50;57.30;;;;;;9185836;19;20424;-60
2022/03/09 06:35:18;;;;;;;10.95;6.32;;;1.60;57.50;;;;;;9178883;19;20529;-60
2022/03/09 06:38:23;;;;;;;12.07;6.75;;;1.60;57.50;;;;;;9178959;19;20511;-60
2022/03/09 06:41:28;;;;;;;18.90;7.10;;;1.50;57.50;;;;;;9179002;19;20018;-60
2022/03/09 06:44:35;;;;;;;12.45;7.05;;;1.50;57.50;;;;;;9180844;19;20050;-60
2022/03/09 06:47:43;;;;;;;15.02;7.18;;;1.50;57.50;;;;;;9180124;19;20026;-62
2022/03/09 06:50:48;;;;;;;13.05;7.60;;;1.50;57.60;;;;;;9179168;19;20018;-60
2022/03/09 06:53:53;;;;;;;14.52;6.88;;;1.50;57.60;;;;;;9182719;19;20482;-61
2022/03/09 06:56:58;;;;;;;15.35;6.85;;;1.50;57.60;;;;;;9178807;19;20015;-60
2022/03/09 07:00:04;;;;;;;13.30;6.97;;;1.60;57.70;;;;;;9176933;19;20034;-61
2022/03/09 07:03:13;;;;;;;14.15;7.35;;;1.60;57.80;;;;;;9177765;19;20018;-60
2022/03/09 07:06:19;;;;;;;14.20;6.82;;;1.60;57.80;;;;;;9178646;19;20483;-59
2022/03/09 07:09:24;;;;;;;15.40;7.32;;;1.60;57.80;;;;;;9179415;19;20018;-59
2022/03/09 07:12:30;;;;;;;15.40;7.45;;;1.70;58.00;;;;;;9181264;19;20344;-60
2022/03/09 07:15:36;;;;;;;13.05;6.95;;;1.70;58.00;;;;;;9171633;19;20022;-60
2022/03/09 07:18:44;;;;;;;13.48;6.82;;;1.80;58.10;;;;;;9170796;19;20048;-61
2022/03/09 07:21:49;;;;;;;13.38;6.65;;;1.80;58.10;;;;;;9166150;19;20403;-62
2022/03/09 07:24:54;;;;;;;13.98;7.07;;;1.90;58.20;;;;;;9171498;19;20105;-59
2022/03/09 07:27:59;;;;;;;14.25;6.93;;;2.00;58.30;;;;;;9167733;19;20002;-62
2022/03/09 07:31:04;;;;;;;14.10;6.88;;;2.10;58.40;;;;;;9169288;19;20520;-61
2022/03/09 07:34:12;;;;;;;16.15;7.00;;;2.10;58.40;;;;;;9168793;19;20010;-60
2022/03/09 07:37:17;;;;;;;17.05;6.43;;;2.20;58.50;;;;;;9175933;19;20046;-61
2022/03/09 07:40:22;;;;;;;11.48;6.45;;;2.30;58.50;;;;;;9171989;19;20011;-60
2022/03/09 07:43:27;;;;;;;16.38;7.45;;;2.50;58.50;;;;;;9171327;19;20351;-63
2022/03/09 07:46:33;;;;;;;12.52;6.22;;;2.70;58.60;;;;;;9173556;19;20563;-60
2022/03/09 07:49:42;;;;;;;12.48;6.93;;;2.80;58.70;;;;;;9173505;19;20018;-61
2022/03/09 07:52:47;;;;;;;14.18;7.63;;;3.00;58.80;;;;;;9179622;19;20025;-60
2022/03/09 07:55:52;;;;;;;13.65;6.32;;;3.30;58.90;;;;;;9178178;19;20098;-63
2022/03/09 07:58:57;;;;;;;12.48;6.70;;;3.50;58.90;;;;;;9179147;19;20015;-60
2022/03/09 08:02:02;;;;;;;20.17;6.72;;;3.70;58.80;;;;;;9175840;19;20023;-62
2022/03/09 08:05:11;;;;;;;13.00;6.57;;;4.00;58.80;;;;;;9174694;19;20364;-62
2022/03/09 08:08:16;;;;;;;11.55;6.40;;;4.30;58.80;;;;;;9175136;19;20015;-60
2022/03/09 08:11:22;;;;;;;12.82;6.60;;;4.50;58.80;;;;;;9177160;19;20051;-61
2022/03/09 08:14:27;;;;;;;16.35;7.25;;;4.70;58.70;;;;;;9174825;19;20348;-63
2022/03/09 08:17:32;;;;;;;15.18;7.28;;;5.00;58.70;;;;;;9180845;19;20033;-61
2022/03/09 08:20:40;;;;;;;12.70;5.57;;;5.30;58.70;;;;;;9172764;19;20014;-60
2022/03/09 08:23:45;;;;;;;14.18;6.47;;;5.50;58.60;;;;;;9177224;19;20025;-61
2022/03/09 08:26:50;;;;;;;10.43;6.53;;;5.80;58.60;;;;;;9177334;19;20463;-61
2022/03/09 08:29:55;;;;;;;10.80;6.20;;;6.00;58.50;;;;;;9176675;19;20594;-59
2022/03/09 08:33:01;;;;;;;10.50;5.85;;;6.40;58.50;;;;;;9177909;19;20057;-62
2022/03/09 08:36:11;;;;;;;11.05;5.97;;;6.60;58.40;;;;;;9177841;19;20354;-60
2022/03/09 08:39:17;;;;;;;14.20;6.22;;;6.90;58.20;;;;;;9179266;19;20572;-62
2022/03/09 08:42:22;;;;;;;12.73;6.43;;;7.10;58.00;;;;;;9180149;19;20399;-64
2022/03/09 08:45:27;;;;;;;9.75;5.20;;;7.40;57.90;;;;;;9175088;19;20478;-63
2022/03/09 08:48:32;;;;;;;16.35;6.90;;;7.60;57.80;;;;;;9174684;19;20018;-61
2022/03/09 08:51:40;;;;;;;11.05;5.70;;;7.90;57.60;;;;;;9175769;19;20043;-60
2022/03/09 08:54:45;;;;;;;11.38;5.72;;;8.10;57.40;;;;;;9175508;19;20023;-62
2022/03/09 08:57:50;;;;;;;11.85;6.10;;;8.30;57.30;;;;;;9177471;19;20018;-59
2022/03/09 09:00:55;;;;;;;11.60;6.25;;;8.50;57.30;;;;;;9181288;19;20022;-63
2022/03/09 09:04:01;;;;;;;13.60;5.25;;;8.80;57.10;;;;;;9185035;19;20021;-60
2022/03/09 09:07:09;;;;;;;13.40;6.40;;;9.10;57.00;;;;;;9183203;19;20034;-62
2022/03/09 09:10:14;;;;;;;7.82;5.47;;;9.20;56.70;;;;;;9183504;19;20029;-60
2022/03/09 09:13:22;;;;;;;10.27;5.63;;;9.40;56.60;;;;;;9185500;19;20034;-60
2022/03/09 09:16:27;;;;;;;11.68;6.22;;;9.60;56.40;;;;;;9185653;19;20022;-62
2022/03/09 09:19:33;;;;;;;11.85;5.90;;;9.80;56.40;;;;;;9186067;19;20022;-62
2022/03/09 09:22:43;;;;;;;14.18;6.22;;;10.00;56.30;;;;;;9187890;19;20015;-61
2022/03/09 09:26:08;;;;;;;11.05;5.65;;;10.20;56.00;;;;;;9187966;19;20022;-62
2022/03/09 09:29:33;;;;;;;11.02;6.00;;;10.40;55.90;;;;;;9183747;19;20019;-63
2022/03/09 09:32:38;;;;;;;11.23;6.03;;;10.60;55.80;;;;;;9182374;19;20029;-61
2022/03/09 09:35:43;;;;;;;11.60;6.00;;;10.70;55.50;;;;;;9181167;19;20025;-61
2022/03/09 09:38:50;;;;;;;11.93;5.88;;;10.90;55.20;;;;;;9184903;19;20027;-61
2022/03/09 09:41:56;;;;;;;13.65;6.22;;;11.10;54.90;;;;;;9185823;19;20015;-61
2022/03/09 09:45:02;;;;;;;18.20;6.10;;;11.20;54.80;;;;;;9183988;19;20110;-62
2022/03/09 09:48:09;;;;;;;12.02;5.90;;;11.30;54.70;;;;;;9184828;19;20022;-64
2022/03/09 09:51:14;;;;;;;10.48;6.00;;;11.50;54.60;;;;;;9184922;19;20025;-60
2022/03/09 09:54:23;;;;;;;10.52;6.25;;;11.60;54.50;;;;;;9182971;19;20007;-60
2022/03/09 09:57:35;;;;;;;17.08;5.57;;;11.80;54.30;;;;;;9181008;19;20022;-60
2022/03/09 10:00:40;;;;;;;9.90;6.10;;;11.90;54.20;;;;;;9185122;19;20017;-60
2022/03/09 10:03:45;;;;;;;9.65;5.47;;;12.10;54.10;;;;;;9183587;19;20025;-62
2022/03/09 10:06:50;;;;;;;10.93;6.50;;;12.20;54.00;;;;;;9185584;19;20014;-60
2022/03/09 10:09:58;;;;;;;12.25;6.40;;;12.40;53.90;;;;;;9180812;19;20022;-61
2022/03/09 10:13:12;;;;;;;11.85;5.88;;;12.50;53.80;;;;;;9182887;19;20042;-60
2022/03/09 10:16:21;;;;;;;12.07;6.25;;;12.70;53.40;;;;;;9183254;19;20019;-60
2022/03/09 10:19:32;;;;;;;15.70;6.97;;;12.90;53.40;;;;;;9180982;19;20048;-61
2022/03/09 10:22:41;;;;;;;12.70;6.45;;;13.10;53.00;;;;;;9182337;19;20018;-61
2022/03/09 10:26:05;;;;;;;11.15;6.32;;;13.20;53.00;;;;;;9181114;19;20014;-61
2022/03/09 10:29:12;;;;;;;13.10;6.78;;;13.40;52.60;;;;;;9183782;19;20385;-62
2022/03/09 10:32:19;;;;;;;11.13;6.25;;;13.50;52.60;;;;;;9182901;19;20014;-63
2022/03/09 10:35:43;;;;;;;12.57;6.75;;;13.60;52.50;;;;;;9183180;19;20344;-60
2022/03/09 10:38:48;;;;;;;14.02;7.32;;;13.70;52.00;;;;;;9184194;19;20014;-60
2022/03/09 10:41:58;;;;;;;12.48;7.13;;;13.80;52.30;;;;;;9178791;19;20015;-63
2022/03/09 10:45:07;;;;;;;15.80;7.50;;;14.00;52.10;;;;;;9181668;19;20477;-60
2022/03/09 10:48:12;;;;;;;15.65;7.07;;;14.10;51.90;;;;;;9180696;19;20017;-62
2022/03/09 10:51:27;;;;;;;11.48;6.63;;;14.20;51.90;;;;;;9180622;19;20025;-62
2022/03/09 10:54:35;;;;;;;14.88;7.00;;;14.30;51.30;;;;;;9181228;19;20055;-61
2022/03/09 10:57:43;;;;;;;11.70;7.22;;;14.40;51.40;;;;;;9181652;19;20015;-63
2022/03/09 11:00:50;;;;;;;11.73;7.28;;;14.50;51.20;;;;;;9184926;19;20027;-61
2022/03/09 11:03:56;;;;;;;11.07;7.13;;;14.60;51.00;;;;;;9183748;19;20043;-62
2022/03/09 11:07:03;;;;;;;14.25;7.25;;;14.70;51.00;;;;;;9178336;19;20029;-61
2022/03/09 11:10:10;;;;;;;10.63;6.53;;;14.80;50.90;;;;;;9177085;19;20022;-61
2022/03/09 11:13:19;;;;;;;15.70;7.68;;;14.90;50.70;;;;;;9170822;19;20023;-62
2022/03/09 11:16:24;;;;;;;12.27;6.85;;;15.00;50.30;;;;;;9172783;19;20029;-62
2022/03/09 11:19:30;;;;;;;13.40;6.88;;;15.10;50.40;;;;;;9172920;19;20098;-61
2022/03/09 11:22:35;;;;;;;10.93;6.95;;;15.10;50.20;;;;;;9173562;19;20058;-61
2022/03/09 11:25:41;;;;;;;13.07;6.65;;;15.20;50.10;;;;;;9171158;19;20380;-64
2022/03/09 11:28:49;;;;;;;11.40;6.85;;;15.20;49.90;;;;;;9173254;19;20086;-61
2022/03/09 11:31:57;;;;;;;15.82;7.68;;;15.30;49.80;;;;;;9173896;19;20030;-60
2022/03/09 11:35:02;;;;;;;13.93;6.88;;;15.40;49.90;;;;;;9173212;19;20021;-60
2022/03/09 11:38:40;;;;;;;10.68;7.40;;;15.50;49.80;;;;;;9171437;19;20027;-62
2022/03/09 11:41:45;;;;;;;10.35;6.70;;;15.60;49.20;;;;;;9174899;19;20369;-63
2022/03/09 11:44:54;;;;;;;11.30;6.68;;;15.70;49.60;;;;;;9174054;19;20482;-61
2022/03/09 11:48:00;;;;;;;15.77;7.43;;;15.80;49.30;;;;;;9171504;19;20022;-61
2022/03/09 11:51:13;;;;;;;12.00;7.18;;;15.90;49.30;;;;;;9170968;19;20025;-62
2022/03/09 11:54:42;;;;;;;16.60;7.28;;;16.00;49.00;;;;;;9166022;19;20015;-63
2022/03/09 11:58:03;;;;;;;13.40;7.65;;;16.10;48.60;;;;;;9172170;19;20029;-61
2022/03/09 12:01:11;;;;;;;20.45;7.13;;;16.30;48.50;;;;;;9169310;19;20014;-61
2022/03/09 12:04:48;;;;;;;12.00;7.25;;;16.40;48.70;;;;;;9166783;19;20022;-61
2022/03/09 12:07:53;;;;;;;12.32;7.72;;;16.50;48.20;;;;;;9172485;19;20027;-62
2022/03/09 12:11:21;;;;;;;16.00;7.10;;;16.60;48.60;;;;;;9170466;19;20014;-62
2022/03/09 12:14:55;;;;;;;12.40;7.28;;;16.60;48.30;;;;;;9171507;19;20023;-61
2022/03/09 12:18:03;;;;;;;14.05;7.65;;;16.70;47.80;;;;;;9172264;19;20423;-60
2022/03/09 12:21:09;;;;;;;14.20;8.07;;;16.70;48.20;;;;;;9163983;19;20118;-62
2022/03/09 12:24:25;;;;;;;15.75;8.23;;;16.80;48.10;;;;;;9171682;19;20018;-62
2022/03/09 12:27:30;;;;;;;12.35;7.60;;;16.90;47.50;;;;;;9170118;19;20018;-60
2022/03/09 12:30:41;;;;;;;11.65;7.35;;;16.90;47.80;;;;;;9169618;19;20021;-60
2022/03/09 12:33:51;;;;;;;15.35;8.43;;;17.00;47.40;;;;;;9168160;19;20557;-60
2022/03/09 12:36:56;;;;;;;10.38;7.35;;;17.00;47.50;;;;;;9169644;19;20014;-61
2022/03/09 12:40:03;;;;;;;16.95;8.05;;;17.10;47.50;;;;;;9173078;19;20019;-60
2022/03/09 12:43:08;;;;;;;15.40;7.70;;;17.10;47.40;;;;;;9172954;19;20098;-64
2022/03/09 12:46:13;;;;;;;19.17;8.85;;;17.10;47.20;;;;;;9172367;19;20022;-61
2022/03/09 12:49:23;;;;;;;14.25;8.63;;;17.10;47.00;;;;;;9171865;19;20050;-62
2022/03/09 12:52:28;;;;;;;14.07;8.13;;;17.10;46.80;;;;;;9167834;19;20034;-61
2022/03/09 12:55:33;;;;;;;13.07;8.98;;;17.00;46.90;;;;;;9169544;19;20030;-60
2022/03/09 12:58:38;;;;;;;13.45;7.97;;;17.00;46.70;;;;;;9176269;19;20025;-61
2022/03/09 13:01:54;;;;;;;17.83;8.90;;;17.00;46.60;;;;;;9177058;19;20026;-60
2022/03/09 13:05:03;;;;;;;13.38;8.73;;;16.90;46.50;;;;;;9177601;19;20011;-60
2022/03/09 13:08:10;;;;;;;13.55;8.32;;;16.90;46.30;;;;;;9175832;19;20029;-63
2022/03/09 13:11:15;;;;;;;13.77;7.97;;;16.80;46.30;;;;;;9174578;19;20022;-61
2022/03/09 13:14:21;;;;;;;13.38;8.00;;;16.70;46.30;;;;;;9177130;19;20026;-60
2022/03/09 13:17:27;;;;;;;14.20;8.10;;;16.60;46.70;;;;;;9176482;19;20015;-61
2022/03/09 13:20:37;;;;;;;13.65;7.63;;;16.60;46.10;;;;;;9170977;19;20025;-63
2022/03/09 13:23:46;;;;;;;16.85;8.50;;;16.40;45.90;;;;;;9175317;19;20018;-61
2022/03/09 13:26:51;;;;;;;13.50;8.32;;;16.30;45.90;;;;;;9176415;19;20030;-61
2022/03/09 13:29:56;;;;;;;13.77;8.82;;;16.20;46.10;;;;;;9177696;19;20190;-60
2022/03/09 13:33:12;;;;;;;16.13;8.65;;;16.10;46.00;;;;;;9177110;19;20856;-60
2022/03/09 13:36:21;;;;;;;17.05;8.48;;;15.90;45.60;;;;;;9176227;19;20007;-60
2022/03/09 13:39:26;;;;;;;15.10;8.07;;;15.80;45.90;;;;;;9175416;19;20473;-60
2022/03/09 13:42:34;;;;;;;13.45;7.53;;;15.70;46.00;;;;;;9174313;19;20019;-60
2022/03/09 13:45:41;;;;;;;21.58;9.70;;;15.60;46.00;;;;;;9176324;19;20517;-60
2022/03/09 13:48:47;;;;;;;15.13;8.55;;;15.50;46.10;;;;;;9182811;19;20021;-62
2022/03/09 13:51:54;;;;;;;17.45;8.27;;;15.40;46.10;;;;;;9183966;19;20021;-63
2022/03/09 13:55:00;;;;;;;16.33;8.25;;;15.30;45.90;;;;;;9185318;19;20328;-60
2022/03/09 13:58:08;;;;;;;30.27;9.05;;;15.20;46.00;;;;;;9181538;19;20021;-60
2022/03/09 14:01:16;;;;;;;23.30;8.40;;;15.20;46.00;;;;;;9181894;19;20018;-61
2022/03/09 14:04:22;;;;;;;17.17;10.60;;;15.10;46.10;;;;;;9182857;19;20022;-60
2022/03/09 14:07:40;;;;;;;14.63;8.40;;;15.10;46.10;;;;;;9181730;19;20010;-60
2022/03/09 14:10:47;;;;;;;11.88;7.78;;;15.00;45.80;;;;;;9182933;19;20029;-60
2022/03/09 14:14:00;;;;;;;11.75;7.35;;;15.00;46.10;;;;;;9183254;19;20018;-61
2022/03/09 14:17:05;;;;;;;18.13;9.02;;;15.00;45.80;;;;;;9182659;19;20010;-62
2022/03/09 14:20:12;;;;;;;12.70;8.07;;;15.00;46.10;;;;;;9181893;19;20017;-61
2022/03/09 14:23:20;;;;;;;13.23;8.02;;;15.00;46.00;;;;;;9181529;19;20014;-60
2022/03/09 14:26:24;;;;;;;17.80;8.68;;;15.00;46.00;;;;;;9182883;19;20010;-62
2022/03/09 14:29:30;;;;;;;14.85;7.82;;;15.00;46.00;;;;;;9178408;19;20018;-60
2022/03/09 14:32:35;;;;;;;15.77;7.72;;;15.00;45.90;;;;;;9181125;19;20026;-61
2022/03/09 14:35:40;;;;;;;12.73;8.55;;;15.00;45.90;;;;;;9181719;19;20578;-60
2022/03/09 14:38:48;;;;;;;17.08;7.75;;;15.00;45.80;;;;;;9183135;19;20022;-61
2022/03/09 14:41:53;;;;;;;16.60;8.50;;;14.90;45.70;;;;;;9182558;19;20022;-61
2022/03/09 14:44:59;;;;;;;15.07;8.73;;;15.00;45.80;;;;;;9180578;19;20018;-61
2022/03/09 14:48:05;;;;;;;15.15;8.23;;;15.00;45.70;;;;;;9181704;19;20045;-61
2022/03/09 14:51:10;;;;;;;16.60;8.98;;;15.00;45.70;;;;;;9180327;19;20022;-60
2022/03/09 14:54:17;;;;;;;13.98;8.80;;;15.00;45.70;;;;;;9182762;19;20366;-60
2022/03/09 14:57:22;;;;;;;18.23;8.85;;;15.00;45.60;;;;;;9183088;19;20043;-61
2022/03/09 15:00:27;;;;;;;12.68;7.90;;;15.00;45.60;;;;;;9183804;19;20103;-61
2022/03/09 15:03:33;;;;;;;14.63;8.93;;;15.00;45.50;;;;;;9181145;19;20018;-60
2022/03/09 15:06:38;;;;;;;14.98;8.80;;;15.00;45.50;;;;;;9179137;19;20036;-60
2022/03/09 15:09:46;;;;;;;17.35;8.40;;;15.00;45.40;;;;;;9178886;19;20580;-60
2022/03/09 15:12:51;;;;;;;23.45;8.82;;;15.00;45.30;;;;;;9179545;19;20010;-61
2022/03/09 15:15:56;;;;;;;15.30;8.98;;;15.00;45.30;;;;;;9180805;19;20018;-64
2022/03/09 15:19:01;;;;;;;16.02;8.52;;;15.00;45.30;;;;;;9180249;19;20059;-61
2022/03/09 15:22:07;;;;;;;15.65;8.85;;;15.00;45.30;;;;;;9179826;19;20036;-63
2022/03/09 15:25:15;;;;;;;12.93;8.50;;;15.00;45.30;;;;;;9180920;19;20014;-62
2022/03/09 15:28:20;;;;;;;16.00;9.30;;;15.00;45.20;;;;;;9180573;19;20366;-61
2022/03/09 15:31:25;;;;;;;20.23;8.00;;;15.00;45.20;;;;;;9179061;19;20022;-62
2022/03/09 15:34:30;;;;;;;17.35;8.82;;;15.00;45.20;;;;;;9179926;19;20014;-62
2022/03/09 15:37:35;;;;;;;16.60;8.57;;;14.90;45.10;;;;;;9182652;19;20030;-63
2022/03/09 15:40:43;;;;;;;14.85;8.13;;;14.90;45.10;;;;;;9180224;19;20014;-63
2022/03/09 15:43:51;;;;;;;15.25;9.77;;;14.90;45.10;;;;;;9180714;19;20015;-60
2022/03/09 15:46:56;;;;;;;16.42;9.20;;;14.90;45.10;;;;;;9178103;19;20015;-62
2022/03/09 15:50:01;;;;;;;26.65;9.68;;;14.80;45.00;;;;;;9177371;19;20022;-62
2022/03/09 15:53:06;;;;;;;13.75;8.65;;;14.80;45.10;;;;;;9178125;19;20019;-61
2022/03/09 15:56:14;;;;;;;13.95;8.40;;;14.80;45.10;;;;;;9177946;19;20019;-63
2022/03/09 15:59:19;;;;;;;13.90;8.70;;;14.70;45.00;;;;;;9179599;19;20474;-61
2022/03/09 16:02:24;;;;;;;14.77;8.95;;;14.70;45.10;;;;;;9177711;19;20498;-61
2022/03/09 16:05:30;;;;;;;17.08;9.05;;;14.70;45.10;;;;;;9180935;19;20018;-61
2022/03/09 16:08:35;;;;;;;15.85;8.82;;;14.60;45.00;;;;;;9176901;19;20029;-62
2022/03/09 16:11:43;;;;;;;21.05;8.93;;;14.50;45.00;;;;;;9178160;19;20019;-61